Terminal Aerodrome Forecast
Issued by NWS Shreveport, LA

Home | Current Version | Previous Version | Text Only | Print | Product List | Glossary On
Versions: 1 2 3 4 5 6 7 8 9 10 11 12 13
955
FTUS44 KSHV 130522
TAFLFK
TAF
KLFK 130522Z 1306/1406 00000KT P6SM SKC
     FM131500 20006KT P6SM SCT300
     FM131700 21010KT P6SM SCT250
     FM140000 20003KT P6SM SCT250=

USA.gov is the U.S. government's official web portal to all federal, state and local government web resources and services.